EST,Max TemperatureF,Mean TemperatureF,Min TemperatureF,Max Dew PointF,MeanDew PointF,Min DewpointF,Max Humidity, Mean Humidity, Min Humidity, Max Sea Level PressureIn, Mean Sea Level PressureIn, Min Sea Level PressureIn, Max VisibilityMiles, Mean VisibilityMiles, Min VisibilityMiles, Max Wind SpeedMPH, Mean Wind SpeedMPH, Max Gust SpeedMPH,PrecipitationIn, CloudCover, Events, WindDirDegrees
2013-11-1,48,47,46,43,39,36,87,74,62,29.69,29.61,29.51,10,10,7,21,12,30,0.00,8,,255
2013-11-2,48,44,41,43,40,34,100,81,62,29.97,29.87,29.77,10,8,5,12,7,17,0.00,8,Rain,303
2013-11-3,48,44,39,36,34,32,81,64,54,30.34,30.31,30.28,10,10,10,9,7,,0.00,6,,130
2013-11-4,51,46,41,37,34,32,70,60,50,30.35,30.28,30.22,10,10,10,17,11,20,0.00,4,,145
2013-11-5,55,52,50,46,43,41,77,70,62,30.33,30.27,30.17,10,10,10,9,6,,0.00,7,,169
2013-11-6,55,48,41,54,49,39,100,91,82,30.05,29.92,29.85,10,6,2,14,12,25,0.00,8,Rain,235
2013-11-7,46,38,30,36,29,27,86,66,46,30.21,30.18,30.15,10,10,10,17,9,23,0.00,4,,274
2013-11-8,44,36,28,30,28,27,93,62,49,30.32,30.25,30.15,10,9,7,8,5,,0.00,1,,228
2013-11-9,59,52,44,37,35,30,57,50,44,29.94,29.91,29.88,10,10,10,22,16,32,0.00,2,,249
2013-11-10,44,42,39,28,28,28,65,59,53,30.31,30.25,30.18,10,10,10,14,11,22,0.00,6,,297
2013-11-11,46,38,30,37,30,21,93,74,53,30.31,30.15,30.08,10,8,2,13,9,21,0.00,8,Rain-Snow,310
2013-11-12,33,27,21,25,20,18,86,71,55,30.61,30.58,30.53,10,9,4,10,4,,0.00,5,Snow,294
2013-11-13,37,28,19,18,15,10,86,56,35,30.54,30.42,30.27,10,10,10,15,9,22,0.00,0,,221
2013-11-14,50,40,30,21,19,18,60,40,30,30.14,30.06,29.99,10,10,7,14,10,23,0.00,0,,208
2013-11-15,50,44,37,30,26,23,56,48,40,30.04,30.02,29.99,10,9,5,8,5,,0.00,5,,200
2013-11-16,55,50,46,48,46,43,87,81,72,30.00,29.91,29.81,10,8,7,17,11,24,0.00,8,,164
2013-11-17,62,60,59,59,58,57,94,90,88,29.57,29.48,29.41,10,7,5,21,16,31,0.00,8,Rain,0
2013-11-18,39,38,37,32,27,25,75,62,56,30.13,29.99,29.80,10,10,10,21,15,28,0.00,8,,287
2013-11-19,42,37,30,25,23,23,80,57,46,30.35,30.33,30.31,10,9,5,4,1,,0.00,1,,103
2013-11-20,44,36,28,30,25,21,80,63,49,30.35,30.25,30.16,10,10,10,14,10,16,0.00,2,,124
2013-11-21,48,46,44,45,41,34,93,82,66,30.23,30.19,30.17,10,7,2,13,7,17,0.00,8,Rain,177
2013-11-22,41,38,30,39,33,27,93,82,70,30.42,30.32,30.20,10,9,4,12,8,22,0.00,8,Rain,321
2013-11-23,30,27,23,21,15,10,80,61,51,30.52,30.42,30.36,10,9,5,17,12,28,0.00,7,Snow,312
2013-11-24,23,20,17,19,12,1,93,73,42,30.62,30.59,30.53,10,7,1,12,3,,0.00,5,Snow,250
2013-11-25,30,26,21,25,16,10,86,63,51,30.27,30.17,30.11,10,9,2,14,11,24,0.00,7,Snow,216
2013-11-26,32,30,28,25,24,23,86,79,75,30.07,30.02,29.97,10,9,3,9,5,16,0.00,8,Snow,229
2013-11-27,26,24,21,23,20,18,86,81,69,30.19,30.11,30.07,10,5,1,10,5,,0.00,8,Snow,302
2013-11-28,,,,,,,,,,,,,,,,,,,,,,
2013-11-29,33,30,26,19,18,16,74,62,48,30.62,30.58,30.52,10,10,10,7,1,,0.00,2,,135
2013-11-30,46,38,30,28,26,21,69,57,50,30.35,30.22,30.12,10,10,10,14,8,17,0.00,0,,190